createdAt,value
2023-04-01T00:01:59.317Z,12.05
2023-04-01T00:07:02.773Z,11.99
2023-04-01T00:12:07.317Z,11.81
2023-04-01T00:17:10.345Z,11.55
2023-04-01T00:22:13.160Z,11.38
2023-04-01T00:27:17.617Z,11.33
2023-04-01T00:32:20.843Z,11.38
2023-04-01T00:37:23.808Z,11.44
2023-04-01T00:42:27.986Z,11.45
2023-04-01T00:47:30.915Z,11.55
2023-04-01T00:52:33.927Z,11.49
2023-04-01T00:57:38.837Z,11.50
2023-04-01T01:02:43.780Z,11.61
2023-04-01T01:07:51.646Z,11.63
2023-04-01T01:13:04.271Z,11.69
2023-04-01T01:18:12.758Z,11.69
2023-04-01T01:23:49.049Z,11.73
2023-04-01T01:28:59.868Z,11.76
2023-04-01T01:34:13.823Z,11.79
2023-04-01T01:39:20.339Z,11.79
2023-04-01T01:44:24.260Z,11.80
2023-04-01T01:49:27.629Z,11.81
2023-04-01T01:54:31.896Z,11.81
2023-04-01T01:59:35.481Z,11.83
2023-04-01T02:04:40.683Z,11.87
2023-04-01T02:09:45.474Z,11.86
2023-04-01T02:14:52.670Z,11.92
2023-04-01T02:19:58.431Z,11.92
2023-04-01T02:25:07.394Z,11.88
2023-04-01T02:30:11.193Z,11.91
2023-04-01T02:35:16.388Z,11.96
2023-04-01T02:40:20.889Z,12.00
2023-04-01T02:45:23.716Z,12.03
2023-04-01T02:50:26.557Z,12.05
2023-04-01T02:55:31.522Z,12.02
2023-04-01T03:00:34.672Z,11.98
2023-04-01T03:05:37.468Z,11.97
2023-04-01T03:10:41.937Z,12.01
2023-04-01T03:15:44.816Z,12.01
2023-04-01T03:20:47.755Z,12.01
2023-04-01T03:25:51.934Z,11.98
2023-04-01T03:30:54.868Z,12.03
2023-04-01T03:35:57.873Z,12.07
2023-04-01T03:41:02.735Z,12.00
2023-04-01T03:46:06.294Z,11.98
2023-04-01T03:51:09.776Z,11.97
2023-04-01T03:56:14.390Z,11.98
2023-04-01T04:01:19.582Z,11.86
2023-04-01T04:06:23.650Z,11.86
2023-04-01T04:11:28.052Z,11.84
2023-04-01T04:16:31.040Z,11.84
2023-04-01T04:21:37.263Z,11.81
2023-04-01T04:26:42.684Z,11.80
2023-04-01T04:31:45.748Z,11.84
2023-04-01T04:36:48.896Z,11.84
2023-04-01T04:41:53.356Z,11.91
2023-04-01T04:46:58.375Z,11.80
2023-04-01T04:52:01.557Z,11.80
2023-04-01T04:57:06.149Z,11.85
2023-04-01T05:02:15.477Z,11.81
2023-04-01T05:07:18.472Z,11.81
2023-04-01T05:12:22.771Z,11.75
2023-04-01T05:17:37.527Z,11.71
2023-04-01T05:22:40.976Z,11.78
2023-04-01T05:27:45.723Z,11.66
2023-04-01T05:32:48.651Z,11.68
2023-04-01T05:37:51.587Z,11.70
2023-04-01T05:42:56.193Z,11.72
2023-04-01T05:47:59.217Z,11.68
2023-04-01T05:53:02.367Z,11.55
2023-04-01T05:58:06.579Z,11.60
2023-04-01T06:03:10.838Z,11.64
2023-04-01T06:08:17.201Z,11.63
2023-04-01T06:13:32.537Z,11.53
2023-04-01T06:18:47.061Z,11.58
2023-04-01T06:23:59.683Z,11.60
2023-04-01T06:29:27.114Z,11.60
2023-04-01T06:34:50.120Z,11.65
2023-04-01T06:40:06.824Z,11.66
2023-04-01T06:45:23.022Z,11.69
2023-04-01T06:50:55.353Z,11.77
2023-04-01T06:56:19.486Z,11.80
2023-04-01T07:01:43.685Z,11.95
2023-04-01T07:06:50.604Z,12.00
2023-04-01T07:11:56.072Z,11.99
2023-04-01T07:17:23.621Z,11.90
2023-04-01T07:22:32.748Z,11.77
2023-04-01T07:27:43.482Z,11.78
2023-04-01T07:32:50.746Z,11.75
2023-04-01T07:38:04.675Z,11.74
2023-04-01T07:43:21.360Z,11.71
2023-04-01T07:48:38.007Z,11.83
2023-04-01T07:53:46.307Z,11.76
2023-04-01T07:58:56.795Z,11.74
2023-04-01T08:04:27.935Z,11.73
2023-04-01T08:09:37.146Z,11.82
2023-04-01T08:15:09.478Z,11.99
2023-04-01T08:20:40.818Z,12.18
2023-04-01T08:25:50.596Z,12.30
2023-04-01T08:30:57.554Z,12.21
2023-04-01T08:36:06.365Z,12.01
2023-04-01T08:41:25.069Z,12.01
2023-04-01T08:47:21.508Z,12.20
2023-04-01T08:52:33.073Z,12.21
2023-04-01T08:57:44.941Z,12.25
2023-04-01T09:03:38.964Z,12.23
2023-04-01T09:08:59.389Z,12.18
2023-04-01T09:14:39.869Z,12.22
2023-04-01T09:20:04.751Z,12.49
2023-04-01T09:25:35.417Z,12.53
2023-04-01T09:30:55.846Z,12.41
2023-04-01T09:36:06.333Z,12.42
2023-04-01T09:41:19.088Z,12.50
2023-04-01T09:46:56.015Z,12.76
2023-04-01T09:52:12.316Z,13.29
2023-04-01T09:57:53.444Z,13.64
2023-04-01T10:03:44.561Z,13.59
2023-04-01T10:09:29.557Z,13.44
2023-04-01T10:15:23.368Z,13.40
2023-04-01T10:20:46.391Z,13.35
2023-04-01T10:26:13.066Z,13.35
2023-04-01T10:31:33.378Z,13.32
2023-04-01T10:36:45.604Z,13.65
2023-04-01T10:42:19.298Z,13.90
2023-04-01T10:48:15.621Z,14.03
2023-04-01T10:53:46.290Z,14.14
2023-04-01T10:59:38.378Z,14.08
2023-04-01T11:05:35.860Z,14.03
2023-04-01T11:11:18.652Z,14.00
2023-04-01T11:16:46.928Z,13.82
2023-04-01T11:22:12.114Z,13.68
2023-04-01T11:27:40.710Z,13.55
2023-04-01T11:32:53.928Z,13.66
2023-04-01T11:38:03.376Z,13.74
2023-04-01T11:43:33.419Z,13.90
2023-04-01T11:49:05.373Z,14.05
2023-04-01T11:54:20.973Z,14.07
2023-04-01T11:59:50.756Z,14.01
2023-04-01T12:05:02.194Z,14.04
2023-04-01T12:10:17.746Z,13.80
2023-04-01T12:15:29.216Z,13.61
2023-04-01T12:20:39.895Z,13.34
2023-04-01T12:26:06.980Z,13.52
2023-04-01T12:31:24.953Z,13.76
2023-04-01T12:36:37.549Z,13.93
2023-04-01T12:41:44.851Z,13.98
2023-04-01T12:47:01.654Z,14.11
2023-04-01T12:52:12.536Z,13.93
2023-04-01T12:57:31.450Z,13.81
2023-04-01T13:02:47.407Z,13.91
2023-04-01T13:08:02.462Z,13.66
2023-04-01T13:13:30.316Z,13.60
2023-04-01T13:18:46.023Z,13.72
2023-04-01T13:23:57.803Z,13.65
2023-04-01T13:29:06.530Z,13.50
2023-04-01T13:34:21.905Z,13.55
2023-04-01T13:39:31.748Z,13.47
2023-04-01T13:44:36.906Z,13.45
2023-04-01T13:50:06.798Z,13.26
2023-04-01T13:55:28.541Z,13.17
2023-04-01T14:00:38.489Z,13.15
2023-04-01T14:05:51.904Z,13.16
2023-04-01T14:11:05.472Z,13.09
2023-04-01T14:16:44.335Z,13.14
2023-04-01T14:21:54.203Z,13.11
2023-04-01T14:27:11.400Z,13.16
2023-04-01T14:32:18.942Z,13.06
2023-04-01T14:37:32.962Z,13.00
2023-04-01T14:43:00.396Z,13.01
2023-04-01T14:48:09.779Z,12.99
2023-04-01T14:53:25.324Z,12.91
2023-04-01T14:58:43.447Z,12.80
2023-04-01T15:03:52.496Z,12.64
2023-04-01T15:09:04.921Z,12.69
2023-04-01T15:14:40.432Z,12.60
2023-04-01T15:20:24.596Z,12.45
2023-04-01T15:25:54.472Z,12.36
2023-04-01T15:30:58.991Z,12.38
2023-04-01T15:36:08.489Z,12.15
2023-04-01T15:41:17.946Z,12.19
2023-04-01T15:46:32.772Z,12.18
2023-04-01T15:51:47.995Z,11.98
2023-04-01T15:57:01.779Z,11.95
2023-04-01T16:02:14.906Z,11.72
2023-04-01T16:07:32.384Z,11.58
2023-04-01T16:12:53.017Z,11.46
2023-04-01T16:18:07.677Z,11.38
2023-04-01T16:23:17.410Z,11.35
2023-04-01T16:28:25.554Z,11.27
2023-04-01T16:33:37.447Z,11.20
2023-04-01T16:38:43.928Z,11.17
2023-04-01T16:43:53.106Z,11.16
2023-04-01T16:49:06.393Z,11.09
2023-04-01T16:54:16.208Z,11.04
2023-04-01T16:59:24.947Z,11.07
2023-04-01T17:04:34.220Z,11.06
2023-04-01T17:09:51.926Z,11.03
2023-04-01T17:15:02.151Z,10.84
2023-04-01T17:20:17.371Z,10.88
2023-04-01T17:25:28.495Z,10.88
2023-04-01T17:30:36.669Z,10.83
2023-04-01T17:35:42.009Z,10.65
2023-04-01T17:40:54.833Z,10.60
2023-04-01T17:46:00.136Z,10.52
2023-04-01T17:51:21.452Z,10.49
2023-04-01T17:56:32.359Z,10.37
2023-04-01T18:01:48.262Z,10.19
2023-04-01T18:07:08.799Z,10.17
2023-04-01T18:12:17.174Z,10.26
2023-04-01T18:17:25.913Z,10.28
2023-04-01T18:22:31.879Z,9.95
2023-04-01T18:27:39.105Z,9.95
2023-04-01T18:32:51.105Z,9.81
2023-04-01T18:37:58.420Z,9.81
2023-04-01T18:43:12.718Z,9.69
2023-04-01T18:48:40.566Z,9.48
2023-04-01T18:53:47.812Z,9.55
2023-04-01T18:58:55.889Z,9.77
2023-04-01T19:04:05.871Z,9.49
2023-04-01T19:09:20.502Z,9.74
2023-04-01T19:14:31.910Z,9.77
2023-04-01T19:19:46.187Z,9.85
2023-04-01T19:25:11.794Z,9.79
2023-04-01T19:30:24.444Z,9.58
2023-04-01T19:35:35.977Z,9.45
2023-04-01T19:40:55.054Z,9.39
2023-04-01T19:46:04.856Z,9.39
2023-04-01T19:51:12.585Z,9.36
2023-04-01T19:56:19.111Z,9.44
2023-04-01T20:01:32.074Z,9.44
2023-04-01T20:06:46.949Z,9.33
2023-04-01T20:11:57.317Z,9.28
2023-04-01T20:17:21.609Z,9.40
2023-04-01T20:22:39.547Z,9.36
2023-04-01T20:27:47.565Z,9.31
2023-04-01T20:33:02.663Z,9.24
2023-04-01T20:38:26.348Z,9.21
2023-04-01T20:43:43.269Z,9.19
2023-04-01T20:49:12.678Z,9.17
2023-04-01T20:54:27.083Z,9.17
2023-04-01T20:59:40.201Z,8.84
2023-04-01T21:05:02.665Z,8.95
2023-04-01T21:10:19.094Z,8.97
2023-04-01T21:15:34.970Z,8.85
2023-04-01T21:21:10.513Z,8.87
2023-04-01T21:26:27.636Z,8.73
2023-04-01T21:31:42.443Z,8.87
2023-04-01T21:36:58.612Z,8.88
2023-04-01T21:42:11.673Z,8.82
2023-04-01T21:47:30.862Z,8.83
2023-04-01T21:53:11.910Z,8.86
2023-04-01T21:58:35.699Z,8.92
2023-04-01T22:03:58.609Z,8.88
2023-04-01T22:09:11.919Z,8.84
2023-04-01T22:14:21.217Z,8.69
2023-04-01T22:19:28.583Z,8.66
2023-04-01T22:24:37.110Z,8.73
2023-04-01T22:29:47.480Z,8.70
2023-04-01T22:34:53.678Z,8.69
2023-04-01T22:40:08.538Z,8.64
2023-04-01T22:45:54.731Z,8.70
2023-04-01T22:51:03.642Z,8.63
2023-04-01T22:56:09.683Z,8.57
2023-04-01T23:01:17.157Z,8.58
2023-04-01T23:06:23.187Z,8.58
2023-04-01T23:11:29.465Z,8.60
2023-04-01T23:16:37.405Z,8.42
2023-04-01T23:21:43.516Z,8.47
2023-04-01T23:26:53.263Z,8.55
2023-04-01T23:32:01.301Z,8.41
2023-04-01T23:37:06.463Z,8.42
2023-04-01T23:42:16.148Z,8.40
2023-04-01T23:47:23.141Z,8.20
2023-04-01T23:52:27.524Z,8.29
2023-04-01T23:57:32.340Z,8.22
